createdAt,value
2023-04-23T00:03:19.129Z,99922.02
2023-04-23T00:06:19.012Z,99923.86
2023-04-23T00:09:18.978Z,99927.65
2023-04-23T00:12:18.957Z,99929.19
2023-04-23T00:15:18.986Z,99932.59
2023-04-23T00:18:18.978Z,99933.08
2023-04-23T00:21:20.068Z,99936.52
2023-04-23T00:24:19.978Z,99935.81
2023-04-23T00:27:20.032Z,99942.52
2023-04-23T00:30:20.040Z,99938.03
2023-04-23T00:33:20.089Z,99936.48
2023-04-23T00:36:20.159Z,99938.38
2023-04-23T00:39:20.026Z,99935.09
2023-04-23T00:42:20.058Z,99935.24
2023-04-23T00:45:20.059Z,99936.45
2023-04-23T00:48:20.050Z,99937.15
2023-04-23T00:51:20.055Z,99940.25
2023-04-23T00:54:20.106Z,99940.73
2023-04-23T00:57:20.027Z,99939.52
2023-04-23T01:00:20.140Z,99943.12
2023-04-23T01:03:20.137Z,99941.73
2023-04-23T01:06:20.105Z,99942.41
2023-04-23T01:09:20.081Z,99944.27
2023-04-23T01:12:20.121Z,99942.86
2023-04-23T01:15:20.123Z,99940.26
2023-04-23T01:18:20.132Z,99940.41
2023-04-23T01:21:21.505Z,99937.96
2023-04-23T01:24:21.143Z,99941.71
2023-04-23T01:27:22.198Z,99943.06
2023-04-23T01:30:22.155Z,99944.73
2023-04-23T01:33:22.180Z,99944.03
2023-04-23T01:36:22.132Z,99944.67
2023-04-23T01:39:22.220Z,99944.65
2023-04-23T01:42:22.369Z,99942.89
2023-04-23T01:45:26.197Z,99945.42
2023-04-23T01:48:26.222Z,99944.19
2023-04-23T01:51:26.184Z,99948.44
2023-04-23T01:54:26.148Z,99951.02
2023-04-23T01:57:30.202Z,99951.69
2023-04-23T02:00:30.268Z,99954.42
2023-04-23T02:03:30.314Z,99953.88
2023-04-23T02:06:30.255Z,99952.11
2023-04-23T02:09:31.259Z,99954.66
2023-04-23T02:12:26.218Z,99955.85
2023-04-23T02:15:05.954Z,99952.73
2023-04-23T02:17:52.365Z,99957.16
2023-04-23T02:20:39.258Z,99954.59
2023-04-23T02:23:39.213Z,99958.02
2023-04-23T02:26:39.255Z,99961.64
2023-04-23T02:29:39.247Z,99963.71
2023-04-23T02:32:39.343Z,99965.23
2023-04-23T02:35:39.290Z,99966.23
2023-04-23T02:38:39.238Z,99967.04
2023-04-23T02:41:39.222Z,99968.20
2023-04-23T02:44:39.643Z,99975.45
2023-04-23T02:51:01.417Z,99973.21
2023-04-23T02:54:01.285Z,99977.15
2023-04-23T02:57:01.313Z,99976.15
2023-04-23T03:00:01.245Z,99976.96
2023-04-23T03:03:06.457Z,99977.48
2023-04-23T03:05:59.320Z,99977.81
2023-04-23T03:08:45.303Z,99979.20
2023-04-23T03:11:45.318Z,99986.09
2023-04-23T03:14:45.304Z,99987.29
2023-04-23T03:17:46.464Z,99987.29
2023-04-23T03:20:47.351Z,99992.80
2023-04-23T03:23:50.237Z,99991.59
2023-04-23T03:26:50.445Z,99996.10
2023-04-23T03:29:51.322Z,99999.92
2023-04-23T03:32:52.410Z,100000.33
2023-04-23T03:35:52.690Z,100004.18
2023-04-23T03:38:55.327Z,100006.31
2023-04-23T03:41:59.403Z,100008.10
2023-04-23T03:44:59.351Z,100008.02
2023-04-23T03:48:00.463Z,100007.90
2023-04-23T03:51:00.439Z,100007.28
2023-04-23T03:54:04.398Z,100009.06
2023-04-23T03:57:09.372Z,100014.30
2023-04-23T04:00:29.573Z,100014.77
2023-04-23T04:03:29.619Z,100016.73
2023-04-23T04:06:30.382Z,100018.02
2023-04-23T04:09:31.687Z,100021.23
2023-04-23T04:12:31.404Z,100022.88
2023-04-23T04:15:32.429Z,100024.52
2023-04-23T04:18:35.477Z,100030.60
2023-04-23T04:21:35.418Z,100031.88
2023-04-23T04:24:38.430Z,100033.21
2023-04-23T04:27:41.454Z,100032.77
2023-04-23T04:30:34.431Z,100035.83
2023-04-23T04:33:21.483Z,100036.98
2023-04-23T04:36:21.532Z,100039.84
2023-04-23T04:39:21.501Z,100039.78
2023-04-23T04:42:28.638Z,100044.28
2023-04-23T04:45:28.469Z,100050.67
2023-04-23T04:48:28.479Z,100050.34
2023-04-23T04:51:28.475Z,100052.56
2023-04-23T04:54:28.468Z,100050.77
2023-04-23T04:57:29.446Z,100053.09
2023-04-23T05:00:34.526Z,100060.11
2023-04-23T05:03:34.672Z,100058.52
2023-04-23T05:06:34.536Z,100061.09
2023-04-23T05:09:34.567Z,100065.86
2023-04-23T05:12:34.536Z,100066.70
2023-04-23T05:15:34.487Z,100068.58
2023-04-23T05:18:34.560Z,100069.91
2023-04-23T05:21:34.578Z,100072.30
2023-04-23T05:24:34.527Z,100075.23
2023-04-23T05:27:28.561Z,100077.13
2023-04-23T05:30:28.652Z,100079.60
2023-04-23T05:33:33.437Z,100083.44
2023-04-23T05:36:37.540Z,100083.86
2023-04-23T05:39:48.582Z,100083.02
2023-04-23T05:42:49.545Z,100083.20
2023-04-23T05:45:50.932Z,100085.37
2023-04-23T05:48:59.564Z,100086.23
2023-04-23T05:51:59.598Z,100088.30
2023-04-23T05:54:59.636Z,100085.86
2023-04-23T05:57:59.611Z,100090.69
2023-04-23T06:00:59.631Z,100092.75
2023-04-23T06:04:00.029Z,100095.18
2023-04-23T06:07:01.617Z,100095.34
2023-04-23T06:10:02.641Z,100093.56
2023-04-23T06:13:10.940Z,100092.30
2023-04-23T06:16:12.653Z,100093.14
2023-04-23T06:19:12.882Z,100096.95
2023-04-23T06:22:12.658Z,100092.67
2023-04-23T06:25:12.694Z,100091.85
2023-04-23T06:28:13.617Z,100093.29
2023-04-23T06:31:28.732Z,100089.64
2023-04-23T06:34:28.633Z,100093.91
2023-04-23T06:37:29.758Z,100093.35
2023-04-23T06:40:29.717Z,100089.83
2023-04-23T06:43:30.714Z,100086.35
2023-04-23T06:46:57.712Z,100090.34
2023-04-23T06:49:57.740Z,100088.92
2023-04-23T06:52:57.683Z,100086.02
2023-04-23T06:55:57.720Z,100086.46
2023-04-23T06:58:57.722Z,100089.61
2023-04-23T07:01:58.658Z,100084.92
2023-04-23T07:04:58.834Z,100090.17
2023-04-23T07:07:52.828Z,100088.42
2023-04-23T07:10:52.877Z,100086.39
2023-04-23T07:13:53.835Z,100086.15
2023-04-23T07:16:54.733Z,100086.98
2023-04-23T07:19:54.764Z,100092.52
2023-04-23T07:22:54.764Z,100090.23
2023-04-23T07:25:54.882Z,100091.09
2023-04-23T07:28:54.762Z,100095.20
2023-04-23T07:31:54.873Z,100095.23
2023-04-23T07:34:55.796Z,100094.64
2023-04-23T07:37:59.866Z,100095.60
2023-04-23T07:40:59.780Z,100096.38
2023-04-23T07:43:59.814Z,100096.54
2023-04-23T07:47:00.838Z,100093.77
2023-04-23T07:50:12.650Z,100092.09
2023-04-23T07:53:16.081Z,100090.91
2023-04-23T07:56:15.861Z,100091.58
2023-04-23T07:59:15.944Z,100090.73
2023-04-23T08:02:16.162Z,100091.40
2023-04-23T08:05:15.981Z,100091.07
2023-04-23T08:08:19.074Z,100096.11
2023-04-23T08:11:19.855Z,100094.77
2023-04-23T08:14:19.886Z,100089.39
2023-04-23T08:17:19.899Z,100089.56
2023-04-23T08:20:19.908Z,100085.38
2023-04-23T08:23:19.853Z,100085.45
2023-04-23T08:26:19.888Z,100084.32
2023-04-23T08:29:19.920Z,100085.33
2023-04-23T08:32:20.177Z,100080.80
2023-04-23T08:35:20.010Z,100081.90
2023-04-23T08:38:19.938Z,100080.60
2023-04-23T08:41:20.013Z,100085.65
2023-04-23T08:44:19.939Z,100085.50
2023-04-23T08:47:20.016Z,100088.33
2023-04-23T08:50:20.952Z,100085.01
2023-04-23T08:53:23.434Z,100088.04
2023-04-23T08:56:23.901Z,100082.35
2023-04-23T08:59:23.942Z,100082.15
2023-04-23T09:02:24.179Z,100082.85
2023-04-23T09:05:24.959Z,100087.10
2023-04-23T09:08:25.104Z,100091.30
2023-04-23T09:11:25.013Z,100087.50
2023-04-23T09:14:24.970Z,100089.77
2023-04-23T09:17:25.136Z,100086.13
2023-04-23T09:20:24.984Z,100085.84
2023-04-23T09:23:29.249Z,100085.66
2023-04-23T09:26:33.010Z,100088.64
2023-04-23T09:29:33.008Z,100083.20
2023-04-23T09:32:34.053Z,100085.30
2023-04-23T09:35:33.993Z,100082.19
2023-04-23T09:38:35.102Z,100082.23
2023-04-23T09:41:28.031Z,100076.70
2023-04-23T09:44:32.035Z,100079.21
2023-04-23T09:47:32.117Z,100079.36
2023-04-23T09:50:32.000Z,100077.71
2023-04-23T09:53:32.072Z,100077.45
2023-04-23T09:56:33.043Z,100074.73
2023-04-23T09:59:46.999Z,100073.30
2023-04-23T10:02:51.220Z,100075.25
2023-04-23T10:06:01.130Z,100074.16
2023-04-23T10:09:03.099Z,100071.02
2023-04-23T10:12:05.124Z,100076.00
2023-04-23T10:15:05.074Z,100076.34
2023-04-23T10:18:05.089Z,100072.67
2023-04-23T10:21:05.093Z,100073.74
2023-04-23T10:24:05.158Z,100072.94
2023-04-23T10:27:05.346Z,100068.26
2023-04-23T10:30:06.459Z,100068.23
2023-04-23T10:33:15.745Z,100072.23
2023-04-23T10:36:23.117Z,100069.17
2023-04-23T10:39:29.809Z,100065.77
2023-04-23T10:42:30.103Z,100064.98
2023-04-23T10:45:30.190Z,100059.41
2023-04-23T10:48:30.104Z,100053.61
2023-04-23T10:52:10.329Z,100054.91
2023-04-23T10:54:50.224Z,100056.20
2023-04-23T10:58:07.224Z,100055.86
2023-04-23T11:01:07.210Z,100056.36
2023-04-23T11:04:07.323Z,100054.41
2023-04-23T11:07:07.201Z,100056.47
2023-04-23T11:10:08.204Z,100061.88
2023-04-23T11:13:08.192Z,100055.02
2023-04-23T11:16:26.255Z,100054.05
2023-04-23T11:19:26.224Z,100053.22
2023-04-23T11:22:26.250Z,100047.11
2023-04-23T11:25:12.246Z,100052.58
2023-04-23T11:28:05.302Z,100050.15
2023-04-23T11:31:05.248Z,100040.36
2023-04-23T11:33:58.283Z,100031.41
2023-04-23T11:36:58.373Z,100035.52
2023-04-23T11:39:58.269Z,100035.46
2023-04-23T11:43:00.273Z,100032.02
2023-04-23T11:46:00.251Z,100027.65
2023-04-23T11:49:01.284Z,100027.53
2023-04-23T11:52:01.211Z,100026.77
2023-04-23T11:55:01.319Z,100028.73
2023-04-23T11:58:01.272Z,100026.94
2023-04-23T12:01:01.281Z,100024.71
2023-04-23T12:04:01.475Z,100023.66
2023-04-23T12:07:01.962Z,100020.26
2023-04-23T12:10:04.431Z,100023.85
2023-04-23T12:13:04.256Z,100021.50
2023-04-23T12:16:04.430Z,100018.23
2023-04-23T12:19:06.306Z,100016.88
2023-04-23T12:22:06.372Z,100016.45
2023-04-23T12:25:09.346Z,100017.33
2023-04-23T12:28:03.241Z,100013.54
2023-04-23T12:31:04.403Z,100011.74
2023-04-23T12:34:17.302Z,100009.66
2023-04-23T12:37:19.356Z,100006.62
2023-04-23T12:40:20.333Z,100004.01
2023-04-23T12:43:20.348Z,99993.05
2023-04-23T12:46:21.401Z,99987.42
2023-04-23T12:49:21.397Z,99986.55
2023-04-23T12:52:21.354Z,99986.45
2023-04-23T12:55:21.410Z,99986.30
2023-04-23T12:58:21.329Z,99986.59
2023-04-23T13:01:21.443Z,99985.61
2023-04-23T13:04:21.401Z,99981.57
2023-04-23T13:07:21.437Z,99978.55
2023-04-23T13:10:21.428Z,99975.27
2023-04-23T13:13:22.624Z,99976.16
2023-04-23T13:16:22.434Z,99978.21
2023-04-23T13:19:23.473Z,99975.98
2023-04-23T13:22:23.417Z,99978.00
2023-04-23T13:25:23.510Z,99973.84
2023-04-23T13:28:24.484Z,99977.70
2023-04-23T13:31:24.489Z,99978.58
2023-04-23T13:34:24.512Z,99980.64
2023-04-23T13:37:24.456Z,99980.63
2023-04-23T13:40:24.451Z,99979.66
2023-04-23T13:43:24.460Z,99987.55
2023-04-23T13:46:25.587Z,99974.85
2023-04-23T13:49:25.458Z,99982.33
2023-04-23T13:52:25.478Z,99976.84
2023-04-23T13:55:25.446Z,99974.94
2023-04-23T13:58:25.488Z,99973.16
2023-04-23T14:01:25.515Z,99977.71
2023-04-23T14:04:26.513Z,99969.67
2023-04-23T14:07:26.539Z,99975.14
2023-04-23T14:10:26.513Z,99969.62
2023-04-23T14:13:26.540Z,99967.34
2023-04-23T14:16:26.601Z,99968.54
2023-04-23T14:19:26.573Z,99965.31
2023-04-23T14:22:19.647Z,99957.36
2023-04-23T14:25:23.569Z,99959.32
2023-04-23T14:28:42.632Z,99960.03
2023-04-23T14:31:36.672Z,99954.89
2023-04-23T14:34:36.599Z,99952.23
2023-04-23T14:37:36.572Z,99952.56
2023-04-23T14:40:39.151Z,99954.70
2023-04-23T14:43:39.545Z,99953.41
2023-04-23T14:46:39.829Z,99949.89
2023-04-23T14:49:39.646Z,99947.83
2023-04-23T14:52:39.649Z,99948.46
2023-04-23T14:55:39.544Z,99950.00
2023-04-23T14:58:40.576Z,99951.84
2023-04-23T15:01:40.614Z,99956.13
2023-04-23T15:04:40.668Z,99957.25
2023-04-23T15:07:40.610Z,99954.73
2023-04-23T15:10:41.592Z,99951.27
2023-04-23T15:13:50.843Z,99948.84
2023-04-23T15:16:51.654Z,99951.40
2023-04-23T15:19:51.598Z,99942.77
2023-04-23T15:22:51.655Z,99943.75
2023-04-23T15:25:51.643Z,99950.57
2023-04-23T15:28:52.633Z,99948.53
2023-04-23T15:31:52.676Z,99949.17
2023-04-23T15:34:53.683Z,99944.73
2023-04-23T15:37:54.677Z,99942.81
2023-04-23T15:40:55.985Z,99943.82
2023-04-23T15:43:56.747Z,99942.10
2023-04-23T15:46:56.686Z,99946.65
2023-04-23T15:49:56.836Z,99940.84
2023-04-23T15:52:50.506Z,99944.11
2023-04-23T15:55:51.704Z,99937.73
2023-04-23T15:58:51.714Z,99941.12
2023-04-23T16:01:54.750Z,99941.95
2023-04-23T16:04:54.819Z,99942.89
2023-04-23T16:07:54.761Z,99943.63
2023-04-23T16:10:54.722Z,99943.36
2023-04-23T16:13:54.721Z,99943.44
2023-04-23T16:16:54.813Z,99943.14
2023-04-23T16:19:54.734Z,99944.25
2023-04-23T16:22:55.742Z,99946.21
2023-04-23T16:25:55.725Z,99947.84
2023-04-23T16:29:16.790Z,99950.33
2023-04-23T16:32:16.771Z,99946.39
2023-04-23T16:35:16.751Z,99952.04
2023-04-23T16:38:16.760Z,99950.73
2023-04-23T16:41:16.792Z,99953.56
2023-04-23T16:44:16.971Z,99952.94
2023-04-23T16:47:17.836Z,99950.38
2023-04-23T16:50:17.863Z,99950.93
2023-04-23T16:53:11.513Z,99951.83
2023-04-23T16:56:11.874Z,99954.27
2023-04-23T16:59:11.903Z,99952.19
2023-04-23T17:02:12.045Z,99959.66
2023-04-23T17:05:12.859Z,99961.38
2023-04-23T17:08:12.848Z,99963.10
2023-04-23T17:11:12.854Z,99965.86
2023-04-23T17:14:12.855Z,99963.75
2023-04-23T17:17:12.912Z,99966.48
2023-04-23T17:20:12.855Z,99967.66
2023-04-23T17:23:12.863Z,99973.52
2023-04-23T17:26:12.849Z,99977.30
2023-04-23T17:29:13.021Z,99979.02
2023-04-23T17:32:13.048Z,99980.35
2023-04-23T17:35:12.907Z,99978.94
2023-04-23T17:38:12.914Z,99981.16
2023-04-23T17:41:12.877Z,99983.05
2023-04-23T17:44:12.940Z,99984.06
2023-04-23T17:47:12.908Z,99988.71
2023-04-23T17:50:12.890Z,99988.88
2023-04-23T17:53:12.874Z,99998.21
2023-04-23T17:56:12.915Z,100000.41
2023-04-23T17:59:12.894Z,100004.89
2023-04-23T18:02:13.035Z,100008.48
2023-04-23T18:05:12.895Z,100010.69
2023-04-23T18:08:14.021Z,100012.56
2023-04-23T18:11:13.945Z,100009.40
2023-04-23T18:14:13.941Z,100012.27
2023-04-23T18:17:13.922Z,100013.79
2023-04-23T18:20:15.944Z,100015.64
2023-04-23T18:23:16.951Z,100012.49
2023-04-23T18:26:16.973Z,100008.62
2023-04-23T18:29:31.980Z,100010.48
2023-04-23T18:32:34.738Z,100008.58
2023-04-23T18:35:35.013Z,100006.48
2023-04-23T18:38:39.955Z,100005.55
2023-04-23T18:41:36.003Z,100006.54
2023-04-23T18:44:15.944Z,100013.45
2023-04-23T18:47:02.017Z,100010.87
2023-04-23T18:49:52.014Z,100013.77
2023-04-23T18:52:52.047Z,100010.30
2023-04-23T18:55:52.036Z,100009.23
2023-04-23T18:58:46.233Z,100012.48
2023-04-23T19:01:46.138Z,100015.54
2023-04-23T19:04:46.157Z,100015.12
2023-04-23T19:07:47.048Z,100013.14
2023-04-23T19:10:47.083Z,100014.80
2023-04-23T19:13:48.042Z,100012.31
2023-04-23T19:16:49.017Z,100011.92
2023-04-23T19:19:49.099Z,100009.30
2023-04-23T19:22:49.047Z,100009.08
2023-04-23T19:25:50.127Z,100006.98
2023-04-23T19:28:43.346Z,100009.20
2023-04-23T19:31:43.159Z,100006.56
2023-04-23T19:34:43.071Z,100008.27
2023-04-23T19:37:43.087Z,100008.75
2023-04-23T19:40:43.075Z,100008.17
2023-04-23T19:43:43.106Z,100011.95
2023-04-23T19:46:43.331Z,100008.80
2023-04-23T19:49:43.371Z,100011.50
2023-04-23T19:52:44.204Z,100007.26
2023-04-23T19:55:44.122Z,100002.51
2023-04-23T19:58:38.829Z,100004.14
2023-04-23T20:01:39.141Z,100006.14
2023-04-23T20:04:39.365Z,100004.86
2023-04-23T20:07:39.165Z,100003.42
2023-04-23T20:10:39.184Z,100001.14
2023-04-23T20:13:40.137Z,100000.94
2023-04-23T20:16:40.197Z,100000.74
2023-04-23T20:19:43.038Z,99998.83
2023-04-23T20:22:36.662Z,99993.95
2023-04-23T20:25:16.284Z,99991.52
2023-04-23T20:28:02.197Z,99988.55
2023-04-23T20:30:41.271Z,99993.13
2023-04-23T20:33:27.187Z,99994.30
2023-04-23T20:36:06.309Z,99995.80
2023-04-23T20:38:55.248Z,99993.34
2023-04-23T20:41:35.951Z,99996.70
2023-04-23T20:44:22.248Z,99996.26
2023-04-23T20:47:22.260Z,99992.53
2023-04-23T20:50:22.429Z,99994.17
2023-04-23T20:53:22.206Z,99993.92
2023-04-23T20:56:23.291Z,99996.94
2023-04-23T20:59:23.221Z,99997.20
2023-04-23T21:02:16.650Z,99997.47
2023-04-23T21:05:20.590Z,99995.99
2023-04-23T21:08:20.224Z,99999.92
2023-04-23T21:11:25.549Z,100003.84
2023-04-23T21:14:25.384Z,100002.44
2023-04-23T21:17:25.466Z,100004.33
2023-04-23T21:20:25.300Z,100006.75
2023-04-23T21:23:25.350Z,100006.44
2023-04-23T21:26:25.315Z,100008.73
2023-04-23T21:29:25.444Z,100006.66
2023-04-23T21:32:25.353Z,100006.51
2023-04-23T21:35:25.337Z,100007.71
2023-04-23T21:38:26.354Z,100011.84
2023-04-23T21:41:26.281Z,100005.55
2023-04-23T21:44:27.551Z,100002.23
2023-04-23T21:47:27.371Z,100004.08
2023-04-23T21:50:28.305Z,100003.34
2023-04-23T21:53:28.364Z,99996.23
2023-04-23T21:56:28.512Z,99998.95
2023-04-23T21:59:30.521Z,100000.11
2023-04-23T22:02:30.504Z,99999.91
2023-04-23T22:05:30.294Z,99998.10
2023-04-23T22:08:32.731Z,99998.89
2023-04-23T22:11:32.440Z,100002.20
2023-04-23T22:14:25.504Z,99999.34
2023-04-23T22:17:26.479Z,100002.32
2023-04-23T22:20:29.369Z,99998.03
2023-04-23T22:23:29.390Z,99996.88
2023-04-23T22:26:29.414Z,99995.95
2023-04-23T22:29:29.357Z,99989.85
2023-04-23T22:32:29.387Z,99989.82
2023-04-23T22:35:29.444Z,99989.06
2023-04-23T22:38:29.475Z,99985.40
2023-04-23T22:41:30.009Z,99984.98
2023-04-23T22:44:33.475Z,99984.20
2023-04-23T22:47:35.401Z,99985.30
2023-04-23T22:50:36.470Z,99981.95
2023-04-23T22:53:36.466Z,99980.34
2023-04-23T22:56:36.440Z,99977.70
2023-04-23T22:59:36.437Z,99976.62
2023-04-23T23:02:36.514Z,99977.94
2023-04-23T23:05:36.475Z,99979.13
2023-04-23T23:08:36.519Z,99976.65
2023-04-23T23:11:36.410Z,99974.84
2023-04-23T23:14:36.489Z,99972.30
2023-04-23T23:17:36.534Z,99970.98
2023-04-23T23:20:38.520Z,99968.61
2023-04-23T23:23:38.491Z,99971.95
2023-04-23T23:26:38.520Z,99964.43
2023-04-23T23:29:38.548Z,99968.30
2023-04-23T23:32:38.517Z,99966.48
2023-04-23T23:35:38.543Z,99968.45
2023-04-23T23:38:39.529Z,99959.88
2023-04-23T23:41:39.518Z,99958.02
2023-04-23T23:44:40.498Z,99959.81
2023-04-23T23:47:40.545Z,99957.13
2023-04-23T23:50:40.599Z,99953.55
2023-04-23T23:53:41.588Z,99952.25
2023-04-23T23:56:41.556Z,99947.34
2023-04-23T23:59:42.828Z,99950.12
